sensor_id;sensor_type;location;lat;lon;timestamp;temperature;humidity
1716;DHT22;855;48.824;9.220;2022-12-29T00:01:37;10.60;75.00
1716;DHT22;855;48.824;9.220;2022-12-29T00:04:06;10.70;75.00
1716;DHT22;855;48.824;9.220;2022-12-29T00:06:33;10.70;74.70
1716;DHT22;855;48.824;9.220;2022-12-29T00:09:00;10.80;74.70
1716;DHT22;855;48.824;9.220;2022-12-29T00:11:27;10.70;74.90
1716;DHT22;855;48.824;9.220;2022-12-29T00:13:54;10.70;74.90
1716;DHT22;855;48.824;9.220;2022-12-29T00:16:42;10.70;75.10
1716;DHT22;855;48.824;9.220;2022-12-29T00:19:11;10.70;75.30
1716;DHT22;855;48.824;9.220;2022-12-29T00:21:52;10.60;75.40
1716;DHT22;855;48.824;9.220;2022-12-29T00:24:36;10.60;75.50
1716;DHT22;855;48.824;9.220;2022-12-29T00:27:20;10.60;75.80
1716;DHT22;855;48.824;9.220;2022-12-29T00:30:08;10.70;75.50
1716;DHT22;855;48.824;9.220;2022-12-29T00:32:53;10.70;75.50
1716;DHT22;855;48.824;9.220;2022-12-29T00:35:41;10.70;75.40
1716;DHT22;855;48.824;9.220;2022-12-29T00:38:10;10.70;75.50
1716;DHT22;855;48.824;9.220;2022-12-29T00:40:56;10.70;75.60
1716;DHT22;855;48.824;9.220;2022-12-29T00:43:41;10.70;75.50
1716;DHT22;855;48.824;9.220;2022-12-29T00:46:25;10.70;75.60
1716;DHT22;855;48.824;9.220;2022-12-29T00:48:52;10.70;75.60
1716;DHT22;855;48.824;9.220;2022-12-29T00:51:37;10.70;75.50
1716;DHT22;855;48.824;9.220;2022-12-29T00:54:05;10.70;75.50
1716;DHT22;855;48.824;9.220;2022-12-29T00:56:32;10.70;75.80
1716;DHT22;855;48.824;9.220;2022-12-29T00:59:00;10.80;75.60
1716;DHT22;855;48.824;9.220;2022-12-29T01:01:27;10.80;75.60
1716;DHT22;855;48.824;9.220;2022-12-29T01:03:53;10.80;75.90
1716;DHT22;855;48.824;9.220;2022-12-29T01:06:20;10.80;75.80
1716;DHT22;855;48.824;9.220;2022-12-29T01:08:49;10.90;75.60
1716;DHT22;855;48.824;9.220;2022-12-29T01:11:35;10.90;75.40
1716;DHT22;855;48.824;9.220;2022-12-29T01:14:01;10.90;75.30
1716;DHT22;855;48.824;9.220;2022-12-29T01:16:29;10.90;75.40
1716;DHT22;855;48.824;9.220;2022-12-29T01:18:56;10.90;75.30
1716;DHT22;855;48.824;9.220;2022-12-29T01:21:23;10.90;75.10
1716;DHT22;855;48.824;9.220;2022-12-29T01:23:51;10.80;75.30
1716;DHT22;855;48.824;9.220;2022-12-29T01:26:18;10.80;75.50
1716;DHT22;855;48.824;9.220;2022-12-29T01:28:45;10.80;75.30
1716;DHT22;855;48.824;9.220;2022-12-29T01:31:14;10.90;75.40
1716;DHT22;855;48.824;9.220;2022-12-29T01:33:41;10.90;75.40
1716;DHT22;855;48.824;9.220;2022-12-29T01:36:10;10.90;75.10
1716;DHT22;855;48.824;9.220;2022-12-29T01:38:38;10.90;75.30
1716;DHT22;855;48.824;9.220;2022-12-29T01:41:08;10.90;75.40
1716;DHT22;855;48.824;9.220;2022-12-29T01:43:42;10.80;75.60
1716;DHT22;855;48.824;9.220;2022-12-29T01:46:22;10.80;75.80
1716;DHT22;855;48.824;9.220;2022-12-29T01:48:52;10.80;75.50
1716;DHT22;855;48.824;9.220;2022-12-29T01:51:22;10.80;75.60
1716;DHT22;855;48.824;9.220;2022-12-29T01:53:50;10.90;75.50
1716;DHT22;855;48.824;9.220;2022-12-29T01:56:20;11.00;75.40
1716;DHT22;855;48.824;9.220;2022-12-29T01:59:02;11.00;75.50
1716;DHT22;855;48.824;9.220;2022-12-29T02:01:32;11.00;75.40
1716;DHT22;855;48.824;9.220;2022-12-29T02:03:59;11.00;75.00
1716;DHT22;855;48.824;9.220;2022-12-29T02:06:29;11.10;75.00
1716;DHT22;855;48.824;9.220;2022-12-29T02:08:57;11.10;74.90
1716;DHT22;855;48.824;9.220;2022-12-29T02:11:28;11.10;74.90
1716;DHT22;855;48.824;9.220;2022-12-29T02:13:56;11.10;75.00
1716;DHT22;855;48.824;9.220;2022-12-29T02:16:40;11.10;74.70
1716;DHT22;855;48.824;9.220;2022-12-29T02:19:50;11.10;74.70
1716;DHT22;855;48.824;9.220;2022-12-29T02:22:27;11.10;74.60
1716;DHT22;855;48.824;9.220;2022-12-29T02:25:15;11.00;74.60
1716;DHT22;855;48.824;9.220;2022-12-29T02:28:12;11.10;74.50
1716;DHT22;855;48.824;9.220;2022-12-29T02:30:55;11.10;74.50
1716;DHT22;855;48.824;9.220;2022-12-29T02:33:35;11.10;74.30
1716;DHT22;855;48.824;9.220;2022-12-29T02:36:09;11.20;74.30
1716;DHT22;855;48.824;9.220;2022-12-29T02:38:51;11.20;74.20
1716;DHT22;855;48.824;9.220;2022-12-29T02:41:26;11.30;74.10
1716;DHT22;855;48.824;9.220;2022-12-29T02:44:01;11.30;74.10
1716;DHT22;855;48.824;9.220;2022-12-29T02:46:35;11.50;73.90
1716;DHT22;855;48.824;9.220;2022-12-29T02:49:06;11.60;73.50
1716;DHT22;855;48.824;9.220;2022-12-29T02:51:39;11.70;73.30
1716;DHT22;855;48.824;9.220;2022-12-29T02:54:07;11.60;73.10
1716;DHT22;855;48.824;9.220;2022-12-29T02:56:51;11.60;73.00
1716;DHT22;855;48.824;9.220;2022-12-29T02:59:19;11.70;73.10
1716;DHT22;855;48.824;9.220;2022-12-29T03:02:05;11.70;72.90
1716;DHT22;855;48.824;9.220;2022-12-29T03:05:05;11.50;72.90
1716;DHT22;855;48.824;9.220;2022-12-29T03:07:43;11.60;73.10
1716;DHT22;855;48.824;9.220;2022-12-29T03:10:22;11.60;73.00
1716;DHT22;855;48.824;9.220;2022-12-29T03:13:00;11.60;72.90
1716;DHT22;855;48.824;9.220;2022-12-29T03:15:53;11.70;72.90
1716;DHT22;855;48.824;9.220;2022-12-29T03:18:51;11.70;72.70
1716;DHT22;855;48.824;9.220;2022-12-29T03:21:27;11.80;72.60
1716;DHT22;855;48.824;9.220;2022-12-29T03:24:11;11.80;72.60
1716;DHT22;855;48.824;9.220;2022-12-29T03:26:39;11.80;72.50
1716;DHT22;855;48.824;9.220;2022-12-29T03:29:08;11.90;72.50
1716;DHT22;855;48.824;9.220;2022-12-29T03:31:36;12.00;72.20
1716;DHT22;855;48.824;9.220;2022-12-29T03:34:05;11.90;72.30
1716;DHT22;855;48.824;9.220;2022-12-29T03:36:39;11.90;72.70
1716;DHT22;855;48.824;9.220;2022-12-29T03:39:09;11.90;72.50
1716;DHT22;855;48.824;9.220;2022-12-29T03:41:40;11.90;72.50
1716;DHT22;855;48.824;9.220;2022-12-29T03:44:08;12.00;72.60
1716;DHT22;855;48.824;9.220;2022-12-29T03:46:35;12.00;72.20
1716;DHT22;855;48.824;9.220;2022-12-29T03:49:02;12.10;72.10
1716;DHT22;855;48.824;9.220;2022-12-29T03:51:30;12.10;72.10
1716;DHT22;855;48.824;9.220;2022-12-29T03:53:57;12.10;71.90
1716;DHT22;855;48.824;9.220;2022-12-29T03:56:24;12.10;71.70
1716;DHT22;855;48.824;9.220;2022-12-29T03:58:51;12.20;71.40
1716;DHT22;855;48.824;9.220;2022-12-29T04:01:17;12.30;71.70
1716;DHT22;855;48.824;9.220;2022-12-29T04:03:44;12.30;71.60
1716;DHT22;855;48.824;9.220;2022-12-29T04:06:11;12.30;72.10
1716;DHT22;855;48.824;9.220;2022-12-29T04:08:39;12.30;72.10
1716;DHT22;855;48.824;9.220;2022-12-29T04:11:06;12.30;72.10
1716;DHT22;855;48.824;9.220;2022-12-29T04:13:33;12.30;72.20
1716;DHT22;855;48.824;9.220;2022-12-29T04:16:00;12.20;72.30
1716;DHT22;855;48.824;9.220;2022-12-29T04:18:26;12.00;72.50
1716;DHT22;855;48.824;9.220;2022-12-29T04:20:53;11.90;73.30
1716;DHT22;855;48.824;9.220;2022-12-29T04:23:26;11.90;73.40
1716;DHT22;855;48.824;9.220;2022-12-29T04:25:54;12.00;73.50
1716;DHT22;855;48.824;9.220;2022-12-29T04:28:21;12.10;73.50
1716;DHT22;855;48.824;9.220;2022-12-29T04:30:48;12.10;73.40
1716;DHT22;855;48.824;9.220;2022-12-29T04:33:15;12.00;73.00
1716;DHT22;855;48.824;9.220;2022-12-29T04:35:42;12.00;73.70
1716;DHT22;855;48.824;9.220;2022-12-29T04:38:09;11.90;73.90
1716;DHT22;855;48.824;9.220;2022-12-29T04:40:38;12.00;73.80
1716;DHT22;855;48.824;9.220;2022-12-29T04:43:07;12.10;73.50
1716;DHT22;855;48.824;9.220;2022-12-29T04:45:34;12.10;73.50
1716;DHT22;855;48.824;9.220;2022-12-29T04:48:00;12.10;73.40
1716;DHT22;855;48.824;9.220;2022-12-29T04:50:27;12.20;73.10
1716;DHT22;855;48.824;9.220;2022-12-29T04:52:54;12.30;72.90
1716;DHT22;855;48.824;9.220;2022-12-29T04:55:21;12.30;73.00
1716;DHT22;855;48.824;9.220;2022-12-29T04:57:48;12.30;73.40
1716;DHT22;855;48.824;9.220;2022-12-29T05:00:16;12.30;73.30
1716;DHT22;855;48.824;9.220;2022-12-29T05:02:43;12.40;73.10
1716;DHT22;855;48.824;9.220;2022-12-29T05:05:10;12.40;73.10
1716;DHT22;855;48.824;9.220;2022-12-29T05:07:37;12.40;73.10
1716;DHT22;855;48.824;9.220;2022-12-29T05:10:05;12.40;73.00
1716;DHT22;855;48.824;9.220;2022-12-29T05:12:33;12.30;73.80
1716;DHT22;855;48.824;9.220;2022-12-29T05:15:00;12.40;74.30
1716;DHT22;855;48.824;9.220;2022-12-29T05:17:29;12.40;73.90
1716;DHT22;855;48.824;9.220;2022-12-29T05:19:56;12.40;74.30
1716;DHT22;855;48.824;9.220;2022-12-29T05:22:23;12.50;74.20
1716;DHT22;855;48.824;9.220;2022-12-29T05:24:50;12.50;74.20
1716;DHT22;855;48.824;9.220;2022-12-29T05:27:17;12.50;74.30
1716;DHT22;855;48.824;9.220;2022-12-29T05:29:43;12.40;74.60
1716;DHT22;855;48.824;9.220;2022-12-29T05:32:10;12.40;74.30
1716;DHT22;855;48.824;9.220;2022-12-29T05:34:38;12.50;74.50
1716;DHT22;855;48.824;9.220;2022-12-29T05:37:05;12.40;74.90
1716;DHT22;855;48.824;9.220;2022-12-29T05:39:32;12.40;75.00
1716;DHT22;855;48.824;9.220;2022-12-29T05:41:59;12.40;75.00
1716;DHT22;855;48.824;9.220;2022-12-29T05:44:26;12.40;74.90
1716;DHT22;855;48.824;9.220;2022-12-29T05:46:52;12.50;74.70
1716;DHT22;855;48.824;9.220;2022-12-29T05:49:19;12.50;74.60
1716;DHT22;855;48.824;9.220;2022-12-29T05:51:47;12.50;74.50
1716;DHT22;855;48.824;9.220;2022-12-29T05:54:14;12.60;74.20
1716;DHT22;855;48.824;9.220;2022-12-29T05:56:41;12.60;73.90
1716;DHT22;855;48.824;9.220;2022-12-29T05:59:08;12.60;74.10
1716;DHT22;855;48.824;9.220;2022-12-29T06:01:35;12.60;74.20
1716;DHT22;855;48.824;9.220;2022-12-29T06:04:01;12.60;74.30
1716;DHT22;855;48.824;9.220;2022-12-29T06:06:28;12.60;74.10
1716;DHT22;855;48.824;9.220;2022-12-29T06:08:56;12.60;74.10
1716;DHT22;855;48.824;9.220;2022-12-29T06:11:23;12.70;73.70
1716;DHT22;855;48.824;9.220;2022-12-29T06:13:50;12.70;73.30
1716;DHT22;855;48.824;9.220;2022-12-29T06:16:17;12.70;73.30
1716;DHT22;855;48.824;9.220;2022-12-29T06:18:43;12.70;73.30
1716;DHT22;855;48.824;9.220;2022-12-29T06:21:10;12.70;73.40
1716;DHT22;855;48.824;9.220;2022-12-29T06:23:37;12.60;73.50
1716;DHT22;855;48.824;9.220;2022-12-29T06:26:05;12.60;73.70
1716;DHT22;855;48.824;9.220;2022-12-29T06:28:32;12.60;73.30
1716;DHT22;855;48.824;9.220;2022-12-29T06:30:59;12.60;73.10
1716;DHT22;855;48.824;9.220;2022-12-29T06:33:28;12.70;72.90
1716;DHT22;855;48.824;9.220;2022-12-29T06:35:55;12.70;73.00
1716;DHT22;855;48.824;9.220;2022-12-29T06:38:21;12.70;72.70
1716;DHT22;855;48.824;9.220;2022-12-29T06:40:48;12.80;72.60
1716;DHT22;855;48.824;9.220;2022-12-29T06:43:16;12.70;72.60
1716;DHT22;855;48.824;9.220;2022-12-29T06:45:43;12.80;72.90
1716;DHT22;855;48.824;9.220;2022-12-29T06:48:10;12.80;72.60
1716;DHT22;855;48.824;9.220;2022-12-29T06:50:37;12.80;72.50
1716;DHT22;855;48.824;9.220;2022-12-29T06:53:04;12.80;72.20
1716;DHT22;855;48.824;9.220;2022-12-29T06:55:30;12.80;72.10
1716;DHT22;855;48.824;9.220;2022-12-29T06:57:58;12.80;71.70
1716;DHT22;855;48.824;9.220;2022-12-29T07:00:27;12.80;71.60
1716;DHT22;855;48.824;9.220;2022-12-29T07:02:55;12.70;71.40
1716;DHT22;855;48.824;9.220;2022-12-29T07:05:21;12.70;71.20
1716;DHT22;855;48.824;9.220;2022-12-29T07:07:48;12.70;71.40
1716;DHT22;855;48.824;9.220;2022-12-29T07:10:15;12.80;71.00
1716;DHT22;855;48.824;9.220;2022-12-29T07:12:42;12.70;70.80
1716;DHT22;855;48.824;9.220;2022-12-29T07:15:09;12.70;70.80
1716;DHT22;855;48.824;9.220;2022-12-29T07:17:38;12.70;71.20
1716;DHT22;855;48.824;9.220;2022-12-29T07:20:06;12.70;70.80
1716;DHT22;855;48.824;9.220;2022-12-29T07:22:33;12.70;70.60
1716;DHT22;855;48.824;9.220;2022-12-29T07:25:00;12.60;70.80
1716;DHT22;855;48.824;9.220;2022-12-29T07:27:27;12.60;70.80
1716;DHT22;855;48.824;9.220;2022-12-29T07:29:54;12.50;70.90
1716;DHT22;855;48.824;9.220;2022-12-29T07:32:21;12.40;71.30
1716;DHT22;855;48.824;9.220;2022-12-29T07:34:49;12.40;71.40
1716;DHT22;855;48.824;9.220;2022-12-29T07:37:16;12.50;71.60
1716;DHT22;855;48.824;9.220;2022-12-29T07:39:44;12.50;71.40
1716;DHT22;855;48.824;9.220;2022-12-29T07:42:10;12.40;71.30
1716;DHT22;855;48.824;9.220;2022-12-29T07:44:45;12.40;71.30
1716;DHT22;855;48.824;9.220;2022-12-29T07:47:12;12.40;71.40
1716;DHT22;855;48.824;9.220;2022-12-29T07:49:38;12.40;71.70
1716;DHT22;855;48.824;9.220;2022-12-29T07:52:06;12.40;71.60
1716;DHT22;855;48.824;9.220;2022-12-29T07:54:33;12.40;71.40
1716;DHT22;855;48.824;9.220;2022-12-29T07:57:00;12.40;71.60
1716;DHT22;855;48.824;9.220;2022-12-29T07:59:27;12.30;71.70
1716;DHT22;855;48.824;9.220;2022-12-29T08:01:54;12.30;71.80
1716;DHT22;855;48.824;9.220;2022-12-29T08:04:20;12.40;71.80
1716;DHT22;855;48.824;9.220;2022-12-29T08:06:47;12.40;71.80
1716;DHT22;855;48.824;9.220;2022-12-29T08:09:16;12.50;71.70
1716;DHT22;855;48.824;9.220;2022-12-29T08:11:42;12.50;71.60
1716;DHT22;855;48.824;9.220;2022-12-29T08:14:09;12.50;71.70
1716;DHT22;855;48.824;9.220;2022-12-29T08:16:36;12.50;71.40
1716;DHT22;855;48.824;9.220;2022-12-29T08:19:03;12.60;71.80
1716;DHT22;855;48.824;9.220;2022-12-29T08:21:30;12.60;71.40
1716;DHT22;855;48.824;9.220;2022-12-29T08:23:57;12.60;71.60
1716;DHT22;855;48.824;9.220;2022-12-29T08:26:25;12.60;71.80
1716;DHT22;855;48.824;9.220;2022-12-29T08:28:52;12.70;71.70
1716;DHT22;855;48.824;9.220;2022-12-29T08:31:20;12.80;71.60
1716;DHT22;855;48.824;9.220;2022-12-29T08:33:46;12.90;71.00
1716;DHT22;855;48.824;9.220;2022-12-29T08:36:13;12.90;71.00
1716;DHT22;855;48.824;9.220;2022-12-29T08:38:40;13.00;70.80
1716;DHT22;855;48.824;9.220;2022-12-29T08:41:07;13.10;70.60
1716;DHT22;855;48.824;9.220;2022-12-29T08:43:35;13.10;70.80
1716;DHT22;855;48.824;9.220;2022-12-29T08:46:02;13.10;70.20
1716;DHT22;855;48.824;9.220;2022-12-29T08:48:29;13.10;70.50
1716;DHT22;855;48.824;9.220;2022-12-29T08:50:56;13.00;70.50
1716;DHT22;855;48.824;9.220;2022-12-29T08:53:22;13.10;70.20
1716;DHT22;855;48.824;9.220;2022-12-29T08:55:55;13.10;70.50
1716;DHT22;855;48.824;9.220;2022-12-29T08:58:22;13.20;70.60
1716;DHT22;855;48.824;9.220;2022-12-29T09:00:52;13.20;70.60
1716;DHT22;855;48.824;9.220;2022-12-29T09:03:19;13.30;70.10
1716;DHT22;855;48.824;9.220;2022-12-29T09:05:47;13.30;70.00
1716;DHT22;855;48.824;9.220;2022-12-29T09:08:14;13.40;70.00
1716;DHT22;855;48.824;9.220;2022-12-29T09:10:41;13.40;70.00
1716;DHT22;855;48.824;9.220;2022-12-29T09:13:08;13.40;69.70
1716;DHT22;855;48.824;9.220;2022-12-29T09:15:35;13.40;69.80
1716;DHT22;855;48.824;9.220;2022-12-29T09:18:04;13.40;70.10
1716;DHT22;855;48.824;9.220;2022-12-29T09:20:30;13.50;69.80
1716;DHT22;855;48.824;9.220;2022-12-29T09:22:57;13.50;69.80
1716;DHT22;855;48.824;9.220;2022-12-29T09:25:24;13.60;70.00
1716;DHT22;855;48.824;9.220;2022-12-29T09:27:51;13.70;69.40
1716;DHT22;855;48.824;9.220;2022-12-29T09:30:20;13.70;69.70
1716;DHT22;855;48.824;9.220;2022-12-29T09:32:48;13.70;69.20
1716;DHT22;855;48.824;9.220;2022-12-29T09:35:16;13.70;69.40
1716;DHT22;855;48.824;9.220;2022-12-29T09:37:44;13.70;69.20
1716;DHT22;855;48.824;9.220;2022-12-29T09:40:24;13.80;69.40
1716;DHT22;855;48.824;9.220;2022-12-29T09:43:05;13.80;68.80
1716;DHT22;855;48.824;9.220;2022-12-29T09:45:43;13.80;69.20
1716;DHT22;855;48.824;9.220;2022-12-29T09:48:16;13.90;69.30
1716;DHT22;855;48.824;9.220;2022-12-29T09:50:49;14.00;68.40
1716;DHT22;855;48.824;9.220;2022-12-29T09:53:21;14.10;68.10
1716;DHT22;855;48.824;9.220;2022-12-29T09:55:54;14.10;68.20
1716;DHT22;855;48.824;9.220;2022-12-29T09:58:24;14.20;68.10
1716;DHT22;855;48.824;9.220;2022-12-29T10:00:58;14.30;67.30
1716;DHT22;855;48.824;9.220;2022-12-29T10:03:35;14.40;67.50
1716;DHT22;855;48.824;9.220;2022-12-29T10:06:11;14.50;66.40
1716;DHT22;855;48.824;9.220;2022-12-29T10:08:41;14.50;66.80
1716;DHT22;855;48.824;9.220;2022-12-29T10:11:17;14.50;66.80
1716;DHT22;855;48.824;9.220;2022-12-29T10:13:59;14.60;66.00
1716;DHT22;855;48.824;9.220;2022-12-29T10:16:36;14.70;65.90
1716;DHT22;855;48.824;9.220;2022-12-29T10:19:25;14.70;66.50
1716;DHT22;855;48.824;9.220;2022-12-29T10:22:04;14.80;66.70
1716;DHT22;855;48.824;9.220;2022-12-29T10:24:38;14.80;66.00
1716;DHT22;855;48.824;9.220;2022-12-29T10:27:09;14.80;65.60
1716;DHT22;855;48.824;9.220;2022-12-29T10:29:40;14.80;66.00
1716;DHT22;855;48.824;9.220;2022-12-29T10:32:20;14.80;66.10
1716;DHT22;855;48.824;9.220;2022-12-29T10:34:52;14.80;66.50
1716;DHT22;855;48.824;9.220;2022-12-29T10:37:29;14.80;66.70
1716;DHT22;855;48.824;9.220;2022-12-29T10:39:58;14.70;67.50
1716;DHT22;855;48.824;9.220;2022-12-29T10:42:28;14.80;67.30
1716;DHT22;855;48.824;9.220;2022-12-29T10:44:56;14.80;67.30
1716;DHT22;855;48.824;9.220;2022-12-29T10:47:26;15.00;66.70
1716;DHT22;855;48.824;9.220;2022-12-29T10:49:54;15.10;66.80
1716;DHT22;855;48.824;9.220;2022-12-29T10:52:23;15.10;66.80
1716;DHT22;855;48.824;9.220;2022-12-29T10:54:54;15.20;66.30
1716;DHT22;855;48.824;9.220;2022-12-29T10:57:26;15.20;66.30
1716;DHT22;855;48.824;9.220;2022-12-29T10:59:53;15.30;66.70
1716;DHT22;855;48.824;9.220;2022-12-29T11:02:43;15.40;66.40
1716;DHT22;855;48.824;9.220;2022-12-29T11:05:22;15.50;65.60
1716;DHT22;855;48.824;9.220;2022-12-29T11:07:55;15.50;65.20
1716;DHT22;855;48.824;9.220;2022-12-29T11:10:30;15.60;64.90
1716;DHT22;855;48.824;9.220;2022-12-29T11:13:02;15.70;64.70
1716;DHT22;855;48.824;9.220;2022-12-29T11:15:39;15.80;64.30
1716;DHT22;855;48.824;9.220;2022-12-29T11:18:18;16.00;63.50
1716;DHT22;855;48.824;9.220;2022-12-29T11:20:45;16.00;63.80
1716;DHT22;855;48.824;9.220;2022-12-29T11:23:25;16.00;63.60
1716;DHT22;855;48.824;9.220;2022-12-29T11:26:07;15.90;64.20
1716;DHT22;855;48.824;9.220;2022-12-29T11:28:34;15.90;63.80
1716;DHT22;855;48.824;9.220;2022-12-29T11:31:02;15.90;64.00
1716;DHT22;855;48.824;9.220;2022-12-29T11:33:30;15.90;64.30
1716;DHT22;855;48.824;9.220;2022-12-29T11:35:58;15.80;63.20
1716;DHT22;855;48.824;9.220;2022-12-29T11:38:34;15.60;63.20
1716;DHT22;855;48.824;9.220;2022-12-29T11:41:02;15.60;62.30
1716;DHT22;855;48.824;9.220;2022-12-29T11:43:32;15.60;62.70
1716;DHT22;855;48.824;9.220;2022-12-29T11:46:01;15.70;63.60
1716;DHT22;855;48.824;9.220;2022-12-29T11:48:31;15.80;63.00
1716;DHT22;855;48.824;9.220;2022-12-29T11:50:59;15.80;63.50
1716;DHT22;855;48.824;9.220;2022-12-29T11:53:32;15.70;63.40
1716;DHT22;855;48.824;9.220;2022-12-29T11:56:04;15.80;64.30
1716;DHT22;855;48.824;9.220;2022-12-29T11:58:33;15.60;67.30
1716;DHT22;855;48.824;9.220;2022-12-29T12:01:02;15.50;70.40
1716;DHT22;855;48.824;9.220;2022-12-29T12:03:32;15.20;72.50
1716;DHT22;855;48.824;9.220;2022-12-29T12:06:02;14.90;75.60
1716;DHT22;855;48.824;9.220;2022-12-29T12:08:37;14.80;77.90
1716;DHT22;855;48.824;9.220;2022-12-29T12:11:10;14.50;77.90
1716;DHT22;855;48.824;9.220;2022-12-29T12:13:44;14.60;77.60
1716;DHT22;855;48.824;9.220;2022-12-29T12:16:17;14.40;78.80
1716;DHT22;855;48.824;9.220;2022-12-29T12:18:47;14.40;79.20
1716;DHT22;855;48.824;9.220;2022-12-29T12:21:23;14.30;78.60
1716;DHT22;855;48.824;9.220;2022-12-29T12:24:15;14.40;78.40
1716;DHT22;855;48.824;9.220;2022-12-29T12:26:55;14.40;77.90
1716;DHT22;855;48.824;9.220;2022-12-29T12:29:26;14.60;77.60
1716;DHT22;855;48.824;9.220;2022-12-29T12:31:59;14.70;77.50
1716;DHT22;855;48.824;9.220;2022-12-29T12:34:31;14.70;76.40
1716;DHT22;855;48.824;9.220;2022-12-29T12:37:19;14.70;76.40
1716;DHT22;855;48.824;9.220;2022-12-29T12:40:06;14.70;77.60
1716;DHT22;855;48.824;9.220;2022-12-29T12:42:42;14.80;76.20
1716;DHT22;855;48.824;9.220;2022-12-29T12:45:32;14.80;74.60
1716;DHT22;855;48.824;9.220;2022-12-29T12:48:12;14.90;74.90
1716;DHT22;855;48.824;9.220;2022-12-29T12:50:52;14.70;74.60
1716;DHT22;855;48.824;9.220;2022-12-29T12:53:52;14.70;74.60
1716;DHT22;855;48.824;9.220;2022-12-29T12:56:50;14.70;75.00
1716;DHT22;855;48.824;9.220;2022-12-29T12:59:31;15.00;74.70
1716;DHT22;855;48.824;9.220;2022-12-29T13:02:15;14.90;74.10
1716;DHT22;855;48.824;9.220;2022-12-29T13:04:57;14.80;75.40
1716;DHT22;855;48.824;9.220;2022-12-29T13:07:36;14.70;75.90
1716;DHT22;855;48.824;9.220;2022-12-29T13:10:30;14.70;76.60
1716;DHT22;855;48.824;9.220;2022-12-29T13:13:26;14.80;76.60
1716;DHT22;855;48.824;9.220;2022-12-29T13:15:57;14.90;75.80
1716;DHT22;855;48.824;9.220;2022-12-29T13:18:32;14.80;76.60
1716;DHT22;855;48.824;9.220;2022-12-29T13:21:07;14.90;76.30
1716;DHT22;855;48.824;9.220;2022-12-29T13:23:40;15.00;76.80
1716;DHT22;855;48.824;9.220;2022-12-29T13:26:16;15.00;75.80
1716;DHT22;855;48.824;9.220;2022-12-29T13:28:51;15.00;75.50
1716;DHT22;855;48.824;9.220;2022-12-29T13:31:26;15.00;75.50
1716;DHT22;855;48.824;9.220;2022-12-29T13:34:00;15.00;75.80
1716;DHT22;855;48.824;9.220;2022-12-29T13:36:32;14.90;76.40
1716;DHT22;855;48.824;9.220;2022-12-29T13:39:03;14.90;75.60
1716;DHT22;855;48.824;9.220;2022-12-29T13:41:33;14.80;75.50
1716;DHT22;855;48.824;9.220;2022-12-29T13:44:04;14.80;75.90
1716;DHT22;855;48.824;9.220;2022-12-29T13:46:36;14.90;75.40
1716;DHT22;855;48.824;9.220;2022-12-29T13:49:06;14.80;75.90
1716;DHT22;855;48.824;9.220;2022-12-29T13:51:35;14.70;75.80
1716;DHT22;855;48.824;9.220;2022-12-29T13:54:16;14.80;76.20
1716;DHT22;855;48.824;9.220;2022-12-29T13:56:50;14.70;76.00
1716;DHT22;855;48.824;9.220;2022-12-29T13:59:25;14.70;76.30
1716;DHT22;855;48.824;9.220;2022-12-29T14:01:58;14.80;75.90
1716;DHT22;855;48.824;9.220;2022-12-29T14:04:27;14.70;75.80
1716;DHT22;855;48.824;9.220;2022-12-29T14:07:03;14.70;76.20
1716;DHT22;855;48.824;9.220;2022-12-29T14:09:42;14.70;76.40
1716;DHT22;855;48.824;9.220;2022-12-29T14:12:31;14.60;76.80
1716;DHT22;855;48.824;9.220;2022-12-29T14:15:06;14.70;76.80
1716;DHT22;855;48.824;9.220;2022-12-29T14:17:40;14.70;76.70
1716;DHT22;855;48.824;9.220;2022-12-29T14:20:18;14.70;76.70
1716;DHT22;855;48.824;9.220;2022-12-29T14:22:56;14.60;77.10
1716;DHT22;855;48.824;9.220;2022-12-29T14:25:56;14.60;77.60
1716;DHT22;855;48.824;9.220;2022-12-29T14:28:24;14.50;77.60
1716;DHT22;855;48.824;9.220;2022-12-29T14:30:54;14.40;77.80
1716;DHT22;855;48.824;9.220;2022-12-29T14:33:22;14.40;78.40
1716;DHT22;855;48.824;9.220;2022-12-29T14:35:52;14.40;78.70
1716;DHT22;855;48.824;9.220;2022-12-29T14:38:22;14.30;78.70
1716;DHT22;855;48.824;9.220;2022-12-29T14:40:50;14.40;78.40
1716;DHT22;855;48.824;9.220;2022-12-29T14:43:24;14.40;78.20
1716;DHT22;855;48.824;9.220;2022-12-29T14:45:58;14.30;78.20
1716;DHT22;855;48.824;9.220;2022-12-29T14:48:34;14.40;78.00
1716;DHT22;855;48.824;9.220;2022-12-29T14:51:15;14.40;77.80
1716;DHT22;855;48.824;9.220;2022-12-29T14:53:45;14.50;77.60
1716;DHT22;855;48.824;9.220;2022-12-29T14:56:14;14.50;77.50
1716;DHT22;855;48.824;9.220;2022-12-29T14:58:47;14.40;77.40
1716;DHT22;855;48.824;9.220;2022-12-29T15:01:21;14.40;78.20
1716;DHT22;855;48.824;9.220;2022-12-29T15:03:50;14.40;78.00
1716;DHT22;855;48.824;9.220;2022-12-29T15:06:18;14.30;78.00
1716;DHT22;855;48.824;9.220;2022-12-29T15:08:50;14.30;78.20
1716;DHT22;855;48.824;9.220;2022-12-29T15:11:20;14.30;78.20
1716;DHT22;855;48.824;9.220;2022-12-29T15:13:48;14.30;78.00
1716;DHT22;855;48.824;9.220;2022-12-29T15:16:23;14.30;77.90
1716;DHT22;855;48.824;9.220;2022-12-29T15:18:51;14.30;77.60
1716;DHT22;855;48.824;9.220;2022-12-29T15:21:22;14.40;77.50
1716;DHT22;855;48.824;9.220;2022-12-29T15:23:50;14.40;77.40
1716;DHT22;855;48.824;9.220;2022-12-29T15:26:17;14.40;77.50
1716;DHT22;855;48.824;9.220;2022-12-29T15:28:49;14.30;77.50
1716;DHT22;855;48.824;9.220;2022-12-29T15:31:17;14.30;77.50
1716;DHT22;855;48.824;9.220;2022-12-29T15:33:47;14.20;77.20
1716;DHT22;855;48.824;9.220;2022-12-29T15:36:18;14.20;77.60
1716;DHT22;855;48.824;9.220;2022-12-29T15:38:46;14.20;77.50
1716;DHT22;855;48.824;9.220;2022-12-29T15:41:26;14.20;77.40
1716;DHT22;855;48.824;9.220;2022-12-29T15:44:06;14.20;77.40
1716;DHT22;855;48.824;9.220;2022-12-29T15:46:36;14.20;77.40
1716;DHT22;855;48.824;9.220;2022-12-29T15:49:07;13.90;78.20
1716;DHT22;855;48.824;9.220;2022-12-29T15:51:36;13.40;79.30
1716;DHT22;855;48.824;9.220;2022-12-29T15:54:04;12.80;82.90
1716;DHT22;855;48.824;9.220;2022-12-29T15:56:32;12.50;85.20
1716;DHT22;855;48.824;9.220;2022-12-29T15:59:01;12.40;86.60
1716;DHT22;855;48.824;9.220;2022-12-29T16:01:31;12.20;87.70
1716;DHT22;855;48.824;9.220;2022-12-29T16:03:58;12.10;88.30
1716;DHT22;855;48.824;9.220;2022-12-29T16:06:32;12.10;88.90
1716;DHT22;855;48.824;9.220;2022-12-29T16:09:02;12.00;88.70
1716;DHT22;855;48.824;9.220;2022-12-29T16:11:33;12.00;89.40
1716;DHT22;855;48.824;9.220;2022-12-29T16:14:02;12.00;89.40
1716;DHT22;855;48.824;9.220;2022-12-29T16:16:36;12.00;89.10
1716;DHT22;855;48.824;9.220;2022-12-29T16:19:05;12.00;89.40
1716;DHT22;855;48.824;9.220;2022-12-29T16:21:35;11.90;89.10
1716;DHT22;855;48.824;9.220;2022-12-29T16:24:06;12.00;89.40
1716;DHT22;855;48.824;9.220;2022-12-29T16:26:33;12.00;89.50
1716;DHT22;855;48.824;9.220;2022-12-29T16:29:04;12.00;89.50
1716;DHT22;855;48.824;9.220;2022-12-29T16:31:34;12.00;89.50
1716;DHT22;855;48.824;9.220;2022-12-29T16:36:53;11.90;89.80
1716;DHT22;855;48.824;9.220;2022-12-29T16:39:32;11.90;90.20
1716;DHT22;855;48.824;9.220;2022-12-29T16:42:00;12.00;90.10
1716;DHT22;855;48.824;9.220;2022-12-29T16:47:18;12.10;89.80
1716;DHT22;855;48.824;9.220;2022-12-29T16:49:50;12.10;89.70
1716;DHT22;855;48.824;9.220;2022-12-29T16:52:21;12.00;89.80